sensor_id;sensor_type;location;lat;lon;timestamp;temperature;humidity
4293;DHT22;2160;51.172;6.808;2024-01-06T05:01:23;8.30;99.90
4293;DHT22;2160;51.172;6.808;2024-01-06T05:03:50;8.30;99.90
4293;DHT22;2160;51.172;6.808;2024-01-06T05:06:16;8.40;99.90
4293;DHT22;2160;51.172;6.808;2024-01-06T05:08:43;8.30;99.90
4293;DHT22;2160;51.172;6.808;2024-01-06T05:11:11;8.30;99.90
4293;DHT22;2160;51.172;6.808;2024-01-06T05:13:39;8.70;99.90
4293;DHT22;2160;51.172;6.808;2024-01-06T05:16:07;8.90;99.90
4293;DHT22;2160;51.172;6.808;2024-01-06T05:18:35;9.10;99.90
4293;DHT22;2160;51.172;6.808;2024-01-06T05:21:03;9.00;99.90
4293;DHT22;2160;51.172;6.808;2024-01-06T05:23:30;8.90;99.90
4293;DHT22;2160;51.172;6.808;2024-01-06T05:25:57;8.90;99.90
4293;DHT22;2160;51.172;6.808;2024-01-06T05:28:24;9.10;99.90
4293;DHT22;2160;51.172;6.808;2024-01-06T05:30:50;9.00;99.90
4293;DHT22;2160;51.172;6.808;2024-01-06T05:33:17;9.00;99.90
4293;DHT22;2160;51.172;6.808;2024-01-06T05:35:46;9.30;99.90
4293;DHT22;2160;51.172;6.808;2024-01-06T05:38:13;9.00;99.90
4293;DHT22;2160;51.172;6.808;2024-01-06T05:40:40;9.20;99.90
4293;DHT22;2160;51.172;6.808;2024-01-06T05:43:08;9.00;99.90
4293;DHT22;2160;51.172;6.808;2024-01-06T05:45:35;8.80;99.90
4293;DHT22;2160;51.172;6.808;2024-01-06T05:48:03;8.70;99.90
4293;DHT22;2160;51.172;6.808;2024-01-06T05:50:30;8.70;99.90
4293;DHT22;2160;51.172;6.808;2024-01-06T05:52:58;8.80;99.90
4293;DHT22;2160;51.172;6.808;2024-01-06T05:55:25;8.90;99.90
4293;DHT22;2160;51.172;6.808;2024-01-06T05:57:52;8.70;99.90
4293;DHT22;2160;51.172;6.808;2024-01-06T06:00:19;8.90;99.90
4293;DHT22;2160;51.172;6.808;2024-01-06T06:02:46;9.10;99.90
4293;DHT22;2160;51.172;6.808;2024-01-06T06:05:14;8.90;99.90
4293;DHT22;2160;51.172;6.808;2024-01-06T06:07:40;8.90;99.90
4293;DHT22;2160;51.172;6.808;2024-01-06T06:10:11;9.00;99.90
4293;DHT22;2160;51.172;6.808;2024-01-06T06:12:38;8.80;99.90
4293;DHT22;2160;51.172;6.808;2024-01-06T06:15:06;8.60;99.90
4293;DHT22;2160;51.172;6.808;2024-01-06T06:17:33;8.60;99.90
4293;DHT22;2160;51.172;6.808;2024-01-06T06:20:00;8.60;99.90
4293;DHT22;2160;51.172;6.808;2024-01-06T06:22:27;8.50;99.90
4293;DHT22;2160;51.172;6.808;2024-01-06T06:24:56;8.60;99.90
4293;DHT22;2160;51.172;6.808;2024-01-06T06:27:24;8.80;99.90
4293;DHT22;2160;51.172;6.808;2024-01-06T06:29:52;8.90;99.90
4293;DHT22;2160;51.172;6.808;2024-01-06T06:32:19;8.90;99.90
4293;DHT22;2160;51.172;6.808;2024-01-06T06:34:46;8.80;99.90
4293;DHT22;2160;51.172;6.808;2024-01-06T06:37:13;9.00;99.90
4293;DHT22;2160;51.172;6.808;2024-01-06T06:39:40;9.00;99.90
4293;DHT22;2160;51.172;6.808;2024-01-06T06:42:08;9.00;99.90
4293;DHT22;2160;51.172;6.808;2024-01-06T06:44:36;8.80;99.90
4293;DHT22;2160;51.172;6.808;2024-01-06T06:47:03;8.90;99.90
4293;DHT22;2160;51.172;6.808;2024-01-06T06:49:30;8.80;99.90
4293;DHT22;2160;51.172;6.808;2024-01-06T06:51:57;8.80;99.90
4293;DHT22;2160;51.172;6.808;2024-01-06T06:54:24;8.80;99.90
4293;DHT22;2160;51.172;6.808;2024-01-06T06:56:51;8.70;99.90
4293;DHT22;2160;51.172;6.808;2024-01-06T06:59:18;8.60;99.90
4293;DHT22;2160;51.172;6.808;2024-01-06T07:01:46;8.50;99.90
4293;DHT22;2160;51.172;6.808;2024-01-06T07:04:13;8.50;99.90
4293;DHT22;2160;51.172;6.808;2024-01-06T07:06:40;8.70;99.90
4293;DHT22;2160;51.172;6.808;2024-01-06T07:09:07;8.60;99.90
4293;DHT22;2160;51.172;6.808;2024-01-06T07:11:34;8.60;99.90
4293;DHT22;2160;51.172;6.808;2024-01-06T07:14:01;8.60;99.90
4293;DHT22;2160;51.172;6.808;2024-01-06T07:16:28;8.80;99.90
4293;DHT22;2160;51.172;6.808;2024-01-06T07:18:56;9.10;99.90
4293;DHT22;2160;51.172;6.808;2024-01-06T07:21:23;8.70;99.90
4293;DHT22;2160;51.172;6.808;2024-01-06T07:23:50;8.80;99.90
4293;DHT22;2160;51.172;6.808;2024-01-06T07:26:17;8.90;99.90
4293;DHT22;2160;51.172;6.808;2024-01-06T07:28:44;8.70;99.90
4293;DHT22;2160;51.172;6.808;2024-01-06T07:31:11;8.60;99.90
4293;DHT22;2160;51.172;6.808;2024-01-06T07:33:38;8.40;99.90
4293;DHT22;2160;51.172;6.808;2024-01-06T07:36:07;8.40;99.90
4293;DHT22;2160;51.172;6.808;2024-01-06T07:38:34;8.30;99.90
4293;DHT22;2160;51.172;6.808;2024-01-06T07:41:01;8.30;99.90
4293;DHT22;2160;51.172;6.808;2024-01-06T07:43:29;8.40;99.90
4293;DHT22;2160;51.172;6.808;2024-01-06T07:45:56;8.30;99.90
4293;DHT22;2160;51.172;6.808;2024-01-06T07:48:23;8.30;99.90
4293;DHT22;2160;51.172;6.808;2024-01-06T07:50:50;8.30;99.90
4293;DHT22;2160;51.172;6.808;2024-01-06T07:53:19;8.30;99.90
4293;DHT22;2160;51.172;6.808;2024-01-06T07:55:46;8.20;99.90
4293;DHT22;2160;51.172;6.808;2024-01-06T07:58:13;8.20;99.90
4293;DHT22;2160;51.172;6.808;2024-01-06T08:00:40;8.20;99.90
4293;DHT22;2160;51.172;6.808;2024-01-06T08:03:07;8.20;99.90
4293;DHT22;2160;51.172;6.808;2024-01-06T08:05:34;8.40;99.90
4293;DHT22;2160;51.172;6.808;2024-01-06T08:08:01;8.40;99.90
4293;DHT22;2160;51.172;6.808;2024-01-06T08:10:31;8.30;99.90
4293;DHT22;2160;51.172;6.808;2024-01-06T08:12:58;8.00;99.90
4293;DHT22;2160;51.172;6.808;2024-01-06T08:15:25;8.10;99.90
4293;DHT22;2160;51.172;6.808;2024-01-06T08:17:52;8.10;99.90
4293;DHT22;2160;51.172;6.808;2024-01-06T08:20:19;8.10;99.90
4293;DHT22;2160;51.172;6.808;2024-01-06T08:22:46;8.30;99.90
4293;DHT22;2160;51.172;6.808;2024-01-06T08:25:13;8.30;99.90
4293;DHT22;2160;51.172;6.808;2024-01-06T08:27:41;8.10;99.90
4293;DHT22;2160;51.172;6.808;2024-01-06T08:30:09;8.10;99.90
4293;DHT22;2160;51.172;6.808;2024-01-06T08:32:36;8.10;99.90
4293;DHT22;2160;51.172;6.808;2024-01-06T08:35:03;8.10;99.90
4293;DHT22;2160;51.172;6.808;2024-01-06T08:37:30;8.20;99.90
4293;DHT22;2160;51.172;6.808;2024-01-06T08:39:57;8.20;99.90
4293;DHT22;2160;51.172;6.808;2024-01-06T08:42:24;8.20;99.90
4293;DHT22;2160;51.172;6.808;2024-01-06T08:44:53;8.00;99.90
4293;DHT22;2160;51.172;6.808;2024-01-06T08:47:19;8.00;99.90
4293;DHT22;2160;51.172;6.808;2024-01-06T08:49:46;8.10;99.90
4293;DHT22;2160;51.172;6.808;2024-01-06T08:52:13;8.00;99.90
4293;DHT22;2160;51.172;6.808;2024-01-06T08:54:40;8.00;99.90
4293;DHT22;2160;51.172;6.808;2024-01-06T08:57:07;8.10;99.90
4293;DHT22;2160;51.172;6.808;2024-01-06T08:59:34;8.20;99.90
4293;DHT22;2160;51.172;6.808;2024-01-06T09:02:03;8.20;99.90
4293;DHT22;2160;51.172;6.808;2024-01-06T09:04:30;8.20;99.90
4293;DHT22;2160;51.172;6.808;2024-01-06T09:06:56;8.30;99.90
4293;DHT22;2160;51.172;6.808;2024-01-06T09:09:24;8.20;99.90
4293;DHT22;2160;51.172;6.808;2024-01-06T09:11:51;8.10;99.90
4293;DHT22;2160;51.172;6.808;2024-01-06T09:14:18;8.10;99.90
4293;DHT22;2160;51.172;6.808;2024-01-06T09:16:45;8.20;99.90
4293;DHT22;2160;51.172;6.808;2024-01-06T09:19:13;8.30;99.90
4293;DHT22;2160;51.172;6.808;2024-01-06T09:21:40;8.30;99.90
4293;DHT22;2160;51.172;6.808;2024-01-06T09:24:07;8.30;99.90
4293;DHT22;2160;51.172;6.808;2024-01-06T09:26:35;8.30;99.90
4293;DHT22;2160;51.172;6.808;2024-01-06T09:29:02;8.30;99.90
4293;DHT22;2160;51.172;6.808;2024-01-06T09:31:30;8.40;99.90
4293;DHT22;2160;51.172;6.808;2024-01-06T09:34:00;8.40;99.90
4293;DHT22;2160;51.172;6.808;2024-01-06T09:36:31;8.30;99.90
4293;DHT22;2160;51.172;6.808;2024-01-06T09:38:58;8.30;99.90
4293;DHT22;2160;51.172;6.808;2024-01-06T09:41:25;8.50;99.90
4293;DHT22;2160;51.172;6.808;2024-01-06T09:43:52;8.70;99.90
4293;DHT22;2160;51.172;6.808;2024-01-06T09:46:24;8.70;99.90
4293;DHT22;2160;51.172;6.808;2024-01-06T09:48:52;8.60;99.90
4293;DHT22;2160;51.172;6.808;2024-01-06T09:51:20;8.70;99.90
4293;DHT22;2160;51.172;6.808;2024-01-06T09:53:55;8.40;99.90
4293;DHT22;2160;51.172;6.808;2024-01-06T09:56:24;8.30;99.90
4293;DHT22;2160;51.172;6.808;2024-01-06T09:58:51;8.60;99.90
4293;DHT22;2160;51.172;6.808;2024-01-06T10:01:18;8.30;99.90
4293;DHT22;2160;51.172;6.808;2024-01-06T10:03:45;8.30;99.90
4293;DHT22;2160;51.172;6.808;2024-01-06T10:06:13;8.50;99.90
4293;DHT22;2160;51.172;6.808;2024-01-06T10:08:42;8.30;99.90
4293;DHT22;2160;51.172;6.808;2024-01-06T10:11:11;8.20;99.90
4293;DHT22;2160;51.172;6.808;2024-01-06T10:13:38;8.30;99.90
4293;DHT22;2160;51.172;6.808;2024-01-06T10:16:05;8.20;99.90
4293;DHT22;2160;51.172;6.808;2024-01-06T10:18:33;8.00;99.90
4293;DHT22;2160;51.172;6.808;2024-01-06T10:21:03;7.70;99.90
4293;DHT22;2160;51.172;6.808;2024-01-06T10:23:32;7.60;99.90
4293;DHT22;2160;51.172;6.808;2024-01-06T10:25:59;7.50;99.90
4293;DHT22;2160;51.172;6.808;2024-01-06T10:28:28;7.50;99.90
4293;DHT22;2160;51.172;6.808;2024-01-06T10:30:56;7.40;99.90
4293;DHT22;2160;51.172;6.808;2024-01-06T10:33:25;7.50;99.90
4293;DHT22;2160;51.172;6.808;2024-01-06T10:35:53;7.90;99.90
4293;DHT22;2160;51.172;6.808;2024-01-06T10:38:21;7.60;99.90
4293;DHT22;2160;51.172;6.808;2024-01-06T10:40:58;7.50;99.90
4293;DHT22;2160;51.172;6.808;2024-01-06T10:43:26;7.60;99.90
4293;DHT22;2160;51.172;6.808;2024-01-06T10:45:57;7.50;99.90
4293;DHT22;2160;51.172;6.808;2024-01-06T10:48:25;7.60;99.90
4293;DHT22;2160;51.172;6.808;2024-01-06T10:50:55;7.80;99.90
4293;DHT22;2160;51.172;6.808;2024-01-06T10:53:22;7.90;99.90
4293;DHT22;2160;51.172;6.808;2024-01-06T10:55:52;7.80;99.90
4293;DHT22;2160;51.172;6.808;2024-01-06T10:58:19;7.70;99.90
4293;DHT22;2160;51.172;6.808;2024-01-06T11:00:47;7.80;99.90
4293;DHT22;2160;51.172;6.808;2024-01-06T11:03:15;7.90;99.90
4293;DHT22;2160;51.172;6.808;2024-01-06T11:05:45;8.10;99.90
4293;DHT22;2160;51.172;6.808;2024-01-06T11:08:12;8.20;99.90
4293;DHT22;2160;51.172;6.808;2024-01-06T11:10:40;8.20;99.90
4293;DHT22;2160;51.172;6.808;2024-01-06T11:13:11;8.00;99.90
4293;DHT22;2160;51.172;6.808;2024-01-06T11:15:46;7.90;99.90
4293;DHT22;2160;51.172;6.808;2024-01-06T11:18:34;7.80;99.90
4293;DHT22;2160;51.172;6.808;2024-01-06T11:21:15;7.90;99.90
4293;DHT22;2160;51.172;6.808;2024-01-06T11:23:43;8.20;99.90
4293;DHT22;2160;51.172;6.808;2024-01-06T11:26:10;7.70;99.90
4293;DHT22;2160;51.172;6.808;2024-01-06T11:28:44;7.60;99.90
4293;DHT22;2160;51.172;6.808;2024-01-06T11:31:11;7.30;99.90
4293;DHT22;2160;51.172;6.808;2024-01-06T11:33:42;7.00;99.90
4293;DHT22;2160;51.172;6.808;2024-01-06T11:36:09;7.00;99.90
4293;DHT22;2160;51.172;6.808;2024-01-06T11:38:38;6.90;99.90
4293;DHT22;2160;51.172;6.808;2024-01-06T11:41:06;7.10;99.90
4293;DHT22;2160;51.172;6.808;2024-01-06T11:43:37;7.10;99.90
4293;DHT22;2160;51.172;6.808;2024-01-06T11:46:05;7.10;99.90
4293;DHT22;2160;51.172;6.808;2024-01-06T11:48:33;7.20;99.90
4293;DHT22;2160;51.172;6.808;2024-01-06T11:51:03;7.40;99.90
4293;DHT22;2160;51.172;6.808;2024-01-06T11:53:31;7.40;99.90
4293;DHT22;2160;51.172;6.808;2024-01-06T11:55:59;7.30;99.90
4293;DHT22;2160;51.172;6.808;2024-01-06T11:58:27;7.40;99.90
4293;DHT22;2160;51.172;6.808;2024-01-06T12:00:55;7.40;99.90
4293;DHT22;2160;51.172;6.808;2024-01-06T12:03:23;7.40;99.90
4293;DHT22;2160;51.172;6.808;2024-01-06T12:05:59;7.50;99.90
4293;DHT22;2160;51.172;6.808;2024-01-06T12:08:28;7.60;99.90
4293;DHT22;2160;51.172;6.808;2024-01-06T12:11:02;7.70;99.90
4293;DHT22;2160;51.172;6.808;2024-01-06T12:13:30;7.70;99.90
4293;DHT22;2160;51.172;6.808;2024-01-06T12:15:57;7.60;99.90
4293;DHT22;2160;51.172;6.808;2024-01-06T12:18:25;7.50;99.90
4293;DHT22;2160;51.172;6.808;2024-01-06T12:20:52;7.50;99.90
4293;DHT22;2160;51.172;6.808;2024-01-06T12:23:30;7.40;99.90
4293;DHT22;2160;51.172;6.808;2024-01-06T12:25:57;7.50;99.90
4293;DHT22;2160;51.172;6.808;2024-01-06T12:28:24;7.40;99.90
4293;DHT22;2160;51.172;6.808;2024-01-06T12:30:51;7.50;99.90
4293;DHT22;2160;51.172;6.808;2024-01-06T12:33:18;7.40;99.90
4293;DHT22;2160;51.172;6.808;2024-01-06T12:35:46;7.50;99.90
4293;DHT22;2160;51.172;6.808;2024-01-06T12:38:13;7.60;99.90
4293;DHT22;2160;51.172;6.808;2024-01-06T12:40:41;7.70;99.90
4293;DHT22;2160;51.172;6.808;2024-01-06T12:43:08;7.80;99.90
4293;DHT22;2160;51.172;6.808;2024-01-06T12:45:35;7.90;99.90
4293;DHT22;2160;51.172;6.808;2024-01-06T12:48:02;7.60;99.90
4293;DHT22;2160;51.172;6.808;2024-01-06T12:50:29;7.60;99.90
4293;DHT22;2160;51.172;6.808;2024-01-06T12:52:56;7.50;99.90
4293;DHT22;2160;51.172;6.808;2024-01-06T12:55:23;7.60;99.90
4293;DHT22;2160;51.172;6.808;2024-01-06T12:57:51;7.30;99.90
4293;DHT22;2160;51.172;6.808;2024-01-06T13:00:18;7.30;99.90
4293;DHT22;2160;51.172;6.808;2024-01-06T13:02:46;7.10;99.90
4293;DHT22;2160;51.172;6.808;2024-01-06T13:05:13;7.40;99.90
4293;DHT22;2160;51.172;6.808;2024-01-06T13:07:40;7.30;99.90
4293;DHT22;2160;51.172;6.808;2024-01-06T13:10:08;7.40;99.90
4293;DHT22;2160;51.172;6.808;2024-01-06T13:12:36;7.30;99.90
4293;DHT22;2160;51.172;6.808;2024-01-06T13:15:05;7.00;99.90
4293;DHT22;2160;51.172;6.808;2024-01-06T13:17:36;6.80;99.90
4293;DHT22;2160;51.172;6.808;2024-01-06T13:20:04;6.70;99.90
4293;DHT22;2160;51.172;6.808;2024-01-06T13:22:31;7.00;99.90
4293;DHT22;2160;51.172;6.808;2024-01-06T13:24:58;7.20;99.90
4293;DHT22;2160;51.172;6.808;2024-01-06T13:27:25;7.20;99.90
4293;DHT22;2160;51.172;6.808;2024-01-06T13:29:54;6.90;99.90
4293;DHT22;2160;51.172;6.808;2024-01-06T13:32:22;7.10;99.90
4293;DHT22;2160;51.172;6.808;2024-01-06T13:34:49;6.90;99.90
4293;DHT22;2160;51.172;6.808;2024-01-06T13:37:19;6.70;99.90
4293;DHT22;2160;51.172;6.808;2024-01-06T13:39:47;6.90;99.90
4293;DHT22;2160;51.172;6.808;2024-01-06T13:42:14;6.80;99.90
4293;DHT22;2160;51.172;6.808;2024-01-06T13:44:41;7.00;99.90
4293;DHT22;2160;51.172;6.808;2024-01-06T13:47:09;7.00;99.90
4293;DHT22;2160;51.172;6.808;2024-01-06T13:49:38;6.90;99.90
4293;DHT22;2160;51.172;6.808;2024-01-06T13:52:05;6.90;99.90
4293;DHT22;2160;51.172;6.808;2024-01-06T13:54:33;6.90;99.90
4293;DHT22;2160;51.172;6.808;2024-01-06T13:57:00;6.90;99.90
4293;DHT22;2160;51.172;6.808;2024-01-06T13:59:27;6.90;99.90
4293;DHT22;2160;51.172;6.808;2024-01-06T14:01:54;6.80;99.90
4293;DHT22;2160;51.172;6.808;2024-01-06T14:04:21;6.80;99.90
4293;DHT22;2160;51.172;6.808;2024-01-06T14:06:50;6.90;99.90
4293;DHT22;2160;51.172;6.808;2024-01-06T14:09:21;6.90;99.90
4293;DHT22;2160;51.172;6.808;2024-01-06T14:11:48;6.90;99.90
4293;DHT22;2160;51.172;6.808;2024-01-06T14:14:15;7.10;99.90
4293;DHT22;2160;51.172;6.808;2024-01-06T14:16:42;7.20;99.90
4293;DHT22;2160;51.172;6.808;2024-01-06T14:19:12;6.90;99.90
4293;DHT22;2160;51.172;6.808;2024-01-06T14:21:39;6.90;99.90
4293;DHT22;2160;51.172;6.808;2024-01-06T14:24:08;6.90;99.90
4293;DHT22;2160;51.172;6.808;2024-01-06T14:26:35;6.90;99.90
4293;DHT22;2160;51.172;6.808;2024-01-06T14:29:02;6.90;99.90
4293;DHT22;2160;51.172;6.808;2024-01-06T14:31:29;7.00;99.90
4293;DHT22;2160;51.172;6.808;2024-01-06T14:33:57;7.00;99.90
4293;DHT22;2160;51.172;6.808;2024-01-06T14:36:23;7.00;99.90
4293;DHT22;2160;51.172;6.808;2024-01-06T14:38:51;7.10;99.90
4293;DHT22;2160;51.172;6.808;2024-01-06T14:41:19;7.20;99.90
4293;DHT22;2160;51.172;6.808;2024-01-06T14:43:46;7.10;99.90
4293;DHT22;2160;51.172;6.808;2024-01-06T14:46:14;7.20;99.90
4293;DHT22;2160;51.172;6.808;2024-01-06T14:48:41;7.20;99.90
4293;DHT22;2160;51.172;6.808;2024-01-06T14:51:08;7.20;99.90
4293;DHT22;2160;51.172;6.808;2024-01-06T14:53:35;7.10;99.90
4293;DHT22;2160;51.172;6.808;2024-01-06T14:56:02;7.00;99.90
4293;DHT22;2160;51.172;6.808;2024-01-06T14:58:30;7.00;99.90
4293;DHT22;2160;51.172;6.808;2024-01-06T15:00:57;7.00;99.90
4293;DHT22;2160;51.172;6.808;2024-01-06T15:03:25;7.30;99.90
4293;DHT22;2160;51.172;6.808;2024-01-06T15:05:52;7.20;99.90
4293;DHT22;2160;51.172;6.808;2024-01-06T15:08:19;7.40;99.90
4293;DHT22;2160;51.172;6.808;2024-01-06T15:10:46;7.20;99.90
4293;DHT22;2160;51.172;6.808;2024-01-06T15:13:13;7.20;99.90
4293;DHT22;2160;51.172;6.808;2024-01-06T15:15:41;7.20;99.90
4293;DHT22;2160;51.172;6.808;2024-01-06T15:18:08;7.20;99.90
4293;DHT22;2160;51.172;6.808;2024-01-06T15:20:35;7.10;99.90
4293;DHT22;2160;51.172;6.808;2024-01-06T15:23:02;7.10;99.90
4293;DHT22;2160;51.172;6.808;2024-01-06T15:25:29;7.00;99.90
4293;DHT22;2160;51.172;6.808;2024-01-06T15:27:56;7.00;99.90
4293;DHT22;2160;51.172;6.808;2024-01-06T15:30:23;7.10;99.90
4293;DHT22;2160;51.172;6.808;2024-01-06T15:32:52;7.00;99.90
4293;DHT22;2160;51.172;6.808;2024-01-06T15:35:19;6.70;99.90
4293;DHT22;2160;51.172;6.808;2024-01-06T15:37:46;6.50;99.90
4293;DHT22;2160;51.172;6.808;2024-01-06T15:40:13;6.50;99.90
4293;DHT22;2160;51.172;6.808;2024-01-06T15:42:41;6.60;99.90
4293;DHT22;2160;51.172;6.808;2024-01-06T15:45:09;6.50;99.90
4293;DHT22;2160;51.172;6.808;2024-01-06T15:47:37;6.60;99.90
4293;DHT22;2160;51.172;6.808;2024-01-06T15:50:06;6.60;99.90
4293;DHT22;2160;51.172;6.808;2024-01-06T15:52:34;6.60;99.90
4293;DHT22;2160;51.172;6.808;2024-01-06T15:55:01;6.50;99.90
4293;DHT22;2160;51.172;6.808;2024-01-06T15:57:28;6.40;99.90
4293;DHT22;2160;51.172;6.808;2024-01-06T15:59:56;6.40;99.90
4293;DHT22;2160;51.172;6.808;2024-01-06T16:02:23;6.30;99.90
4293;DHT22;2160;51.172;6.808;2024-01-06T16:04:50;6.10;99.90
4293;DHT22;2160;51.172;6.808;2024-01-06T16:07:18;6.30;99.90
4293;DHT22;2160;51.172;6.808;2024-01-06T16:09:45;6.50;99.90
4293;DHT22;2160;51.172;6.808;2024-01-06T16:12:12;6.30;99.90
4293;DHT22;2160;51.172;6.808;2024-01-06T16:14:40;6.10;99.90
4293;DHT22;2160;51.172;6.808;2024-01-06T16:17:07;6.00;99.90
4293;DHT22;2160;51.172;6.808;2024-01-06T16:19:34;6.10;99.90
4293;DHT22;2160;51.172;6.808;2024-01-06T16:22:01;6.10;99.90
4293;DHT22;2160;51.172;6.808;2024-01-06T16:24:30;6.00;99.90
4293;DHT22;2160;51.172;6.808;2024-01-06T16:26:57;6.10;99.90
4293;DHT22;2160;51.172;6.808;2024-01-06T16:29:24;6.10;99.90
4293;DHT22;2160;51.172;6.808;2024-01-06T16:31:50;6.30;99.90
4293;DHT22;2160;51.172;6.808;2024-01-06T16:34:17;6.40;99.90
4293;DHT22;2160;51.172;6.808;2024-01-06T16:36:44;6.30;99.90
4293;DHT22;2160;51.172;6.808;2024-01-06T16:39:11;6.10;99.90
4293;DHT22;2160;51.172;6.808;2024-01-06T16:41:40;6.00;99.90
4293;DHT22;2160;51.172;6.808;2024-01-06T16:44:07;5.90;99.90
4293;DHT22;2160;51.172;6.808;2024-01-06T16:46:34;5.40;99.90
4293;DHT22;2160;51.172;6.808;2024-01-06T16:49:01;5.50;99.90
4293;DHT22;2160;51.172;6.808;2024-01-06T16:51:27;5.60;99.90
4293;DHT22;2160;51.172;6.808;2024-01-06T16:53:54;5.50;99.90
4293;DHT22;2160;51.172;6.808;2024-01-06T16:56:21;5.70;99.90
4293;DHT22;2160;51.172;6.808;2024-01-06T16:58:50;6.00;99.90
4293;DHT22;2160;51.172;6.808;2024-01-06T17:01:17;5.80;99.90
4293;DHT22;2160;51.172;6.808;2024-01-06T17:03:44;6.10;99.90
4293;DHT22;2160;51.172;6.808;2024-01-06T17:06:11;6.10;99.90
4293;DHT22;2160;51.172;6.808;2024-01-06T17:08:38;6.30;99.90
4293;DHT22;2160;51.172;6.808;2024-01-06T17:11:06;6.30;99.90
4293;DHT22;2160;51.172;6.808;2024-01-06T17:13:33;6.40;99.90
4293;DHT22;2160;51.172;6.808;2024-01-06T17:16:02;6.20;99.90
4293;DHT22;2160;51.172;6.808;2024-01-06T17:18:29;6.10;99.90
4293;DHT22;2160;51.172;6.808;2024-01-06T17:20:56;6.00;99.90
4293;DHT22;2160;51.172;6.808;2024-01-06T17:23:22;6.10;99.90
4293;DHT22;2160;51.172;6.808;2024-01-06T17:25:50;6.30;99.90
4293;DHT22;2160;51.172;6.808;2024-01-06T17:28:17;6.50;99.90
4293;DHT22;2160;51.172;6.808;2024-01-06T17:30:44;6.60;99.90
4293;DHT22;2160;51.172;6.808;2024-01-06T17:33:12;6.60;99.90
4293;DHT22;2160;51.172;6.808;2024-01-06T17:35:39;6.60;99.90
4293;DHT22;2160;51.172;6.808;2024-01-06T17:38:06;6.50;99.90
4293;DHT22;2160;51.172;6.808;2024-01-06T17:40:33;6.60;99.90
4293;DHT22;2160;51.172;6.808;2024-01-06T17:43:00;6.60;99.90
4293;DHT22;2160;51.172;6.808;2024-01-06T17:45:27;6.50;99.90
4293;DHT22;2160;51.172;6.808;2024-01-06T17:47:54;6.50;99.90
4293;DHT22;2160;51.172;6.808;2024-01-06T17:50:23;6.50;99.90
4293;DHT22;2160;51.172;6.808;2024-01-06T17:52:50;6.60;99.90
4293;DHT22;2160;51.172;6.808;2024-01-06T17:55:17;6.70;99.90
4293;DHT22;2160;51.172;6.808;2024-01-06T17:57:44;6.80;99.90
4293;DHT22;2160;51.172;6.808;2024-01-06T18:00:11;6.80;99.90
4293;DHT22;2160;51.172;6.808;2024-01-06T18:02:39;6.70;99.90
4293;DHT22;2160;51.172;6.808;2024-01-06T18:05:08;6.60;99.90
4293;DHT22;2160;51.172;6.808;2024-01-06T18:07:38;6.70;99.90
4293;DHT22;2160;51.172;6.808;2024-01-06T18:10:06;6.80;99.90
4293;DHT22;2160;51.172;6.808;2024-01-06T18:12:34;6.80;99.90
4293;DHT22;2160;51.172;6.808;2024-01-06T18:15:01;6.60;99.90
4293;DHT22;2160;51.172;6.808;2024-01-06T18:17:29;6.40;99.90
4293;DHT22;2160;51.172;6.808;2024-01-06T18:19:56;6.30;99.90
4293;DHT22;2160;51.172;6.808;2024-01-06T18:22:23;6.50;99.90
4293;DHT22;2160;51.172;6.808;2024-01-06T18:24:51;6.60;99.90
4293;DHT22;2160;51.172;6.808;2024-01-06T18:27:18;6.50;99.90
4293;DHT22;2160;51.172;6.808;2024-01-06T18:29:45;6.50;99.90
4293;DHT22;2160;51.172;6.808;2024-01-06T18:32:13;6.40;99.90
4293;DHT22;2160;51.172;6.808;2024-01-06T18:34:40;6.40;99.90
4293;DHT22;2160;51.172;6.808;2024-01-06T18:37:11;6.50;99.90
4293;DHT22;2160;51.172;6.808;2024-01-06T18:39:38;6.60;99.90
4293;DHT22;2160;51.172;6.808;2024-01-06T18:42:07;6.50;99.90
4293;DHT22;2160;51.172;6.808;2024-01-06T18:44:37;6.60;99.90
4293;DHT22;2160;51.172;6.808;2024-01-06T18:47:04;6.50;99.90
4293;DHT22;2160;51.172;6.808;2024-01-06T18:49:34;6.60;99.90
4293;DHT22;2160;51.172;6.808;2024-01-06T18:52:01;6.60;99.90
4293;DHT22;2160;51.172;6.808;2024-01-06T18:54:28;6.50;99.90
4293;DHT22;2160;51.172;6.808;2024-01-06T18:56:55;6.50;99.90
4293;DHT22;2160;51.172;6.808;2024-01-06T18:59:23;6.70;99.90
4293;DHT22;2160;51.172;6.808;2024-01-06T19:01:50;6.70;99.90
4293;DHT22;2160;51.172;6.808;2024-01-06T19:04:17;6.50;99.90
4293;DHT22;2160;51.172;6.808;2024-01-06T19:06:45;6.50;99.90
4293;DHT22;2160;51.172;6.808;2024-01-06T19:09:12;6.70;99.90
4293;DHT22;2160;51.172;6.808;2024-01-06T19:11:39;6.50;99.90
4293;DHT22;2160;51.172;6.808;2024-01-06T19:14:06;6.40;99.90
4293;DHT22;2160;51.172;6.808;2024-01-06T19:16:35;6.40;99.90
4293;DHT22;2160;51.172;6.808;2024-01-06T19:19:02;6.40;99.90
4293;DHT22;2160;51.172;6.808;2024-01-06T19:21:29;6.40;99.90
4293;DHT22;2160;51.172;6.808;2024-01-06T19:23:56;6.50;99.90
4293;DHT22;2160;51.172;6.808;2024-01-06T19:26:23;6.60;99.90
4293;DHT22;2160;51.172;6.808;2024-01-06T19:28:50;6.80;99.90
4293;DHT22;2160;51.172;6.808;2024-01-06T19:31:17;6.70;99.90
4293;DHT22;2160;51.172;6.808;2024-01-06T19:33:45;6.60;99.90
4293;DHT22;2160;51.172;6.808;2024-01-06T19:36:15;6.70;99.90
4293;DHT22;2160;51.172;6.808;2024-01-06T19:38:42;6.70;99.90
4293;DHT22;2160;51.172;6.808;2024-01-06T19:41:09;6.70;99.90
4293;DHT22;2160;51.172;6.808;2024-01-06T19:43:36;6.70;99.90
4293;DHT22;2160;51.172;6.808;2024-01-06T19:46:07;6.60;99.90
4293;DHT22;2160;51.172;6.808;2024-01-06T19:48:34;6.60;99.90
4293;DHT22;2160;51.172;6.808;2024-01-06T19:51:02;6.60;99.90
4293;DHT22;2160;51.172;6.808;2024-01-06T19:53:30;6.70;99.90
4293;DHT22;2160;51.172;6.808;2024-01-06T19:55:59;6.70;99.90
4293;DHT22;2160;51.172;6.808;2024-01-06T19:58:27;6.70;99.90
4293;DHT22;2160;51.172;6.808;2024-01-06T20:00:54;6.60;99.90
4293;DHT22;2160;51.172;6.808;2024-01-06T20:03:21;6.40;99.90
4293;DHT22;2160;51.172;6.808;2024-01-06T20:05:48;6.40;99.90
4293;DHT22;2160;51.172;6.808;2024-01-06T20:08:16;6.50;99.90
4293;DHT22;2160;51.172;6.808;2024-01-06T20:10:43;6.60;99.90
4293;DHT22;2160;51.172;6.808;2024-01-06T20:13:10;6.70;99.90
4293;DHT22;2160;51.172;6.808;2024-01-06T20:15:37;6.70;99.90
4293;DHT22;2160;51.172;6.808;2024-01-06T20:18:05;6.80;99.90
4293;DHT22;2160;51.172;6.808;2024-01-06T20:20:32;6.80;99.90
4293;DHT22;2160;51.172;6.808;2024-01-06T20:22:59;6.80;99.90
4293;DHT22;2160;51.172;6.808;2024-01-06T20:25:27;6.90;99.90
4293;DHT22;2160;51.172;6.808;2024-01-06T20:27:54;6.90;99.90
4293;DHT22;2160;51.172;6.808;2024-01-06T20:30:26;6.80;99.90
4293;DHT22;2160;51.172;6.808;2024-01-06T20:32:53;7.10;99.90
4293;DHT22;2160;51.172;6.808;2024-01-06T20:35:20;7.00;99.90
4293;DHT22;2160;51.172;6.808;2024-01-06T20:37:47;7.10;99.90
4293;DHT22;2160;51.172;6.808;2024-01-06T20:40:15;7.00;99.90
4293;DHT22;2160;51.172;6.808;2024-01-06T20:42:43;6.90;99.90
4293;DHT22;2160;51.172;6.808;2024-01-06T20:45:10;6.80;99.90
4293;DHT22;2160;51.172;6.808;2024-01-06T20:47:38;6.90;99.90
4293;DHT22;2160;51.172;6.808;2024-01-06T20:50:06;6.90;99.90
4293;DHT22;2160;51.172;6.808;2024-01-06T20:52:34;6.80;99.90
4293;DHT22;2160;51.172;6.808;2024-01-06T20:55:01;6.90;99.90
4293;DHT22;2160;51.172;6.808;2024-01-06T20:57:29;7.00;99.90
4293;DHT22;2160;51.172;6.808;2024-01-06T20:59:58;7.00;99.90
4293;DHT22;2160;51.172;6.808;2024-01-06T21:02:25;6.90;99.90
4293;DHT22;2160;51.172;6.808;2024-01-06T21:04:53;6.90;99.90
4293;DHT22;2160;51.172;6.808;2024-01-06T21:07:20;7.00;99.90
4293;DHT22;2160;51.172;6.808;2024-01-06T21:09:47;6.90;99.90
4293;DHT22;2160;51.172;6.808;2024-01-06T21:12:14;6.80;99.90
4293;DHT22;2160;51.172;6.808;2024-01-06T21:14:41;6.80;99.90
4293;DHT22;2160;51.172;6.808;2024-01-06T21:17:09;6.70;99.90
4293;DHT22;2160;51.172;6.808;2024-01-06T21:19:36;6.60;99.90